createdAt,value
2023-05-02T00:00:45.613Z,8.00
2023-05-02T00:03:16.864Z,8.10
2023-05-02T00:05:47.216Z,8.20
2023-05-02T00:08:17.268Z,8.40
2023-05-02T00:10:49.833Z,8.40
2023-05-02T00:13:19.747Z,8.30
2023-05-02T00:15:49.992Z,8.30
2023-05-02T00:18:20.180Z,8.40
2023-05-02T00:20:50.226Z,8.60
2023-05-02T00:23:20.116Z,8.70
2023-05-02T00:25:52.604Z,8.70
2023-05-02T00:28:22.836Z,8.50
2023-05-02T00:30:52.997Z,8.50
2023-05-02T00:33:23.277Z,8.30
2023-05-02T00:35:53.233Z,8.00
2023-05-02T00:38:23.194Z,7.80
2023-05-02T00:40:55.753Z,7.80
2023-05-02T00:43:26.352Z,7.70
2023-05-02T00:45:56.382Z,7.80
2023-05-02T00:48:28.140Z,8.20
2023-05-02T00:50:58.541Z,8.30
2023-05-02T00:53:28.564Z,7.90
2023-05-02T00:56:01.239Z,7.80
2023-05-02T00:58:34.684Z,7.60
2023-05-02T01:01:19.279Z,8.00
2023-05-02T01:03:58.496Z,8.20
2023-05-02T01:06:39.600Z,8.30
2023-05-02T01:09:23.955Z,8.20
2023-05-02T01:12:05.722Z,8.00
2023-05-02T01:14:45.740Z,7.70
2023-05-02T01:17:19.264Z,7.70
2023-05-02T01:19:55.596Z,7.90
2023-05-02T01:22:27.537Z,8.00
2023-05-02T01:25:06.950Z,7.90
2023-05-02T01:27:50.779Z,7.80
2023-05-02T01:30:25.516Z,7.80
2023-05-02T01:32:58.300Z,7.80
2023-05-02T01:35:29.219Z,7.80
2023-05-02T01:38:01.458Z,7.80
2023-05-02T01:40:32.716Z,7.80
2023-05-02T01:43:05.374Z,7.60
2023-05-02T01:45:39.446Z,7.50
2023-05-02T01:48:12.018Z,7.40
2023-05-02T01:50:45.933Z,7.40
2023-05-02T01:53:17.545Z,7.50
2023-05-02T01:55:49.291Z,7.70
2023-05-02T01:58:21.877Z,8.00
2023-05-02T02:00:57.055Z,8.20
2023-05-02T02:03:27.368Z,8.20
2023-05-02T02:05:59.571Z,8.10
2023-05-02T02:08:29.718Z,7.90
2023-05-02T02:13:37.153Z,7.60
2023-05-02T02:16:14.278Z,7.70
2023-05-02T02:18:48.170Z,7.60
2023-05-02T02:21:22.029Z,7.40
2023-05-02T02:23:53.985Z,7.30
2023-05-02T02:26:25.858Z,7.10
2023-05-02T02:28:55.859Z,7.00
2023-05-02T02:31:33.823Z,7.00
2023-05-02T02:34:04.414Z,7.00
2023-05-02T02:36:42.551Z,7.10
2023-05-02T02:39:21.131Z,7.00
2023-05-02T02:42:01.774Z,7.10
2023-05-02T02:44:42.433Z,7.20
2023-05-02T02:47:23.259Z,7.30
2023-05-02T02:49:59.321Z,7.30
2023-05-02T02:52:40.465Z,7.20
2023-05-02T02:55:15.683Z,7.30
2023-05-02T02:57:54.557Z,7.20
2023-05-02T03:00:28.490Z,7.00
2023-05-02T03:03:01.253Z,6.90
2023-05-02T03:05:33.244Z,6.70
2023-05-02T03:08:03.518Z,6.80
2023-05-02T03:10:33.889Z,6.80
2023-05-02T03:13:03.963Z,6.90
2023-05-02T03:16:09.304Z,6.90
2023-05-02T03:18:43.065Z,6.90
2023-05-02T03:21:13.012Z,6.60
2023-05-02T03:23:44.326Z,6.50
2023-05-02T03:26:14.395Z,6.50
2023-05-02T03:28:46.765Z,6.70
2023-05-02T03:31:21.930Z,6.80
2023-05-02T03:33:55.932Z,6.80
2023-05-02T03:36:26.377Z,6.90
2023-05-02T03:38:57.885Z,7.00
2023-05-02T03:41:28.351Z,7.20
2023-05-02T03:44:05.370Z,7.10
2023-05-02T03:46:35.342Z,7.10
2023-05-02T03:49:11.274Z,7.10
2023-05-02T03:51:44.586Z,7.20
2023-05-02T03:54:15.362Z,7.30
2023-05-02T03:56:47.170Z,7.50
2023-05-02T03:59:31.456Z,7.80
2023-05-02T04:02:01.488Z,8.00
2023-05-02T04:04:47.676Z,8.00
2023-05-02T04:07:21.289Z,8.20
2023-05-02T04:10:01.227Z,8.40
2023-05-02T04:12:33.401Z,8.40
2023-05-02T04:15:04.018Z,8.40
2023-05-02T04:17:34.017Z,8.40
2023-05-02T04:20:07.372Z,8.60
2023-05-02T04:22:40.094Z,8.60
2023-05-02T04:25:11.409Z,8.60
2023-05-02T04:27:43.524Z,8.50
2023-05-02T04:30:16.707Z,8.50
2023-05-02T04:32:53.779Z,8.50
2023-05-02T04:35:26.667Z,8.50
2023-05-02T04:37:57.180Z,8.50
2023-05-02T04:40:27.369Z,8.50
2023-05-02T04:43:03.684Z,8.50
2023-05-02T04:45:41.933Z,8.50
2023-05-02T04:48:18.810Z,8.60
2023-05-02T04:50:53.641Z,8.60
2023-05-02T04:53:25.563Z,8.60
2023-05-02T04:55:56.237Z,8.70
2023-05-02T04:58:26.365Z,8.70
2023-05-02T05:01:02.172Z,8.80
2023-05-02T05:03:33.483Z,8.80
2023-05-02T05:06:06.766Z,9.10
2023-05-02T05:08:37.035Z,9.20
2023-05-02T05:11:07.950Z,9.20
2023-05-02T05:13:38.591Z,9.20
2023-05-02T05:16:11.128Z,9.30
2023-05-02T05:18:43.206Z,9.50
2023-05-02T05:21:18.588Z,9.80
2023-05-02T05:23:49.718Z,10.30
2023-05-02T05:26:26.937Z,10.60
2023-05-02T05:28:57.532Z,10.60
2023-05-02T05:31:30.396Z,10.50
2023-05-02T05:34:03.287Z,10.40
2023-05-02T05:36:36.331Z,10.40
2023-05-02T05:39:06.421Z,10.40
2023-05-02T05:41:38.502Z,10.40
2023-05-02T05:44:11.513Z,10.30
2023-05-02T05:46:41.900Z,10.20
2023-05-02T05:49:14.073Z,10.20
2023-05-02T05:51:48.076Z,10.10
2023-05-02T05:54:20.049Z,10.20
2023-05-02T05:56:50.837Z,10.20
2023-05-02T05:59:22.919Z,10.50
2023-05-02T06:01:54.293Z,10.70
2023-05-02T06:04:26.060Z,10.90
2023-05-02T06:06:59.569Z,11.20
2023-05-02T06:09:29.552Z,11.50
2023-05-02T06:11:59.433Z,11.80
2023-05-02T06:14:29.580Z,12.00
2023-05-02T06:17:02.051Z,12.20
2023-05-02T06:19:31.905Z,12.30
2023-05-02T06:22:04.363Z,12.40
2023-05-02T06:24:34.319Z,12.70
2023-05-02T06:27:04.191Z,12.90
2023-05-02T06:29:34.115Z,13.10
2023-05-02T06:32:04.459Z,13.40
2023-05-02T06:34:35.020Z,13.60
2023-05-02T06:37:07.508Z,13.70
2023-05-02T06:39:37.412Z,13.80
2023-05-02T06:42:07.239Z,13.70
2023-05-02T06:44:37.851Z,13.60
2023-05-02T06:47:08.359Z,13.50
2023-05-02T06:49:38.312Z,13.50
2023-05-02T06:52:10.931Z,13.50
2023-05-02T06:54:42.553Z,13.70
2023-05-02T06:57:12.776Z,14.00
2023-05-02T06:59:43.315Z,14.40
2023-05-02T07:02:13.193Z,14.80
2023-05-02T07:04:43.600Z,15.10
2023-05-02T07:07:18.995Z,15.40
2023-05-02T07:09:48.953Z,15.50
2023-05-02T07:12:18.957Z,15.50
2023-05-02T07:14:49.111Z,15.60
2023-05-02T07:17:19.086Z,15.60
2023-05-02T07:19:48.973Z,15.70
2023-05-02T07:22:21.448Z,15.70
2023-05-02T07:24:51.350Z,15.60
2023-05-02T07:27:21.328Z,15.70
2023-05-02T07:29:51.672Z,15.70
2023-05-02T07:32:22.763Z,15.60
2023-05-02T07:34:54.313Z,15.40
2023-05-02T07:37:26.938Z,15.30
2023-05-02T07:39:56.798Z,15.50
2023-05-02T07:42:31.860Z,15.60
2023-05-02T07:45:02.330Z,15.70
2023-05-02T07:47:32.235Z,15.70
2023-05-02T07:50:03.332Z,15.30
2023-05-02T07:52:36.157Z,15.50
2023-05-02T07:55:06.937Z,15.60
2023-05-02T07:57:36.848Z,15.80
2023-05-02T08:00:10.292Z,16.00
2023-05-02T08:02:46.537Z,16.10
2023-05-02T08:05:16.530Z,15.80
2023-05-02T08:07:49.228Z,15.80
2023-05-02T08:10:19.307Z,15.50
2023-05-02T08:12:49.330Z,15.60
2023-05-02T08:15:19.219Z,15.40
2023-05-02T08:17:49.153Z,15.40
2023-05-02T08:20:19.321Z,15.20
2023-05-02T08:22:51.768Z,15.00
2023-05-02T08:25:21.726Z,15.00
2023-05-02T08:27:51.609Z,14.80
2023-05-02T08:30:21.663Z,15.00
2023-05-02T08:32:51.571Z,15.10
2023-05-02T08:35:21.732Z,15.20
2023-05-02T08:37:54.322Z,15.20
2023-05-02T08:40:38.208Z,15.50
2023-05-02T08:43:11.208Z,15.50
2023-05-02T08:45:43.787Z,15.60
2023-05-02T08:48:17.060Z,15.40
2023-05-02T08:50:48.623Z,15.50
2023-05-02T08:53:21.396Z,15.70
2023-05-02T08:55:52.268Z,15.90
2023-05-02T08:58:22.204Z,16.20
2023-05-02T09:00:53.884Z,16.20
2023-05-02T09:03:31.921Z,16.20
2023-05-02T09:06:10.384Z,16.50
2023-05-02T09:08:44.364Z,16.80
2023-05-02T09:11:16.159Z,17.00
2023-05-02T09:13:47.070Z,17.30
2023-05-02T09:16:19.669Z,17.70
2023-05-02T09:18:51.154Z,18.00
2023-05-02T09:21:22.220Z,17.90
2023-05-02T09:23:56.524Z,18.20
2023-05-02T09:26:29.484Z,18.60
2023-05-02T09:29:02.473Z,19.00
2023-05-02T09:31:54.954Z,19.50
2023-05-02T09:34:26.917Z,20.00
2023-05-02T09:36:57.903Z,20.40
2023-05-02T09:39:32.098Z,20.40
2023-05-02T09:42:04.070Z,20.20
2023-05-02T09:44:40.784Z,20.80
2023-05-02T09:47:10.989Z,20.30
2023-05-02T09:49:45.680Z,20.60
2023-05-02T09:52:17.598Z,21.10
2023-05-02T09:54:50.863Z,21.90
2023-05-02T09:57:20.824Z,23.10
2023-05-02T09:59:57.255Z,24.10
2023-05-02T10:05:00.244Z,28.60
2023-05-02T10:07:30.865Z,29.20
2023-05-02T10:10:04.645Z,29.90
2023-05-02T10:12:36.211Z,29.20
2023-05-02T10:15:07.402Z,28.60
2023-05-02T10:17:43.864Z,28.50
2023-05-02T10:20:17.260Z,30.40
2023-05-02T10:22:48.920Z,30.10
2023-05-02T10:25:22.160Z,30.00
2023-05-02T10:27:52.223Z,28.30
2023-05-02T10:30:22.964Z,27.00
2023-05-02T10:32:55.161Z,25.20
2023-05-02T10:35:27.993Z,24.80
2023-05-02T10:37:58.938Z,26.10
2023-05-02T10:40:31.931Z,26.50
2023-05-02T10:43:01.924Z,25.80
2023-05-02T10:45:36.628Z,25.40
2023-05-02T10:48:20.282Z,24.20
2023-05-02T10:50:51.724Z,24.10
2023-05-02T10:53:32.244Z,26.00
2023-05-02T10:56:22.026Z,26.20
2023-05-02T10:58:53.945Z,26.40
2023-05-02T11:01:40.059Z,27.40
2023-05-02T11:04:11.346Z,28.40
2023-05-02T11:07:19.337Z,26.80
2023-05-02T11:09:49.334Z,26.90
2023-05-02T11:12:49.974Z,26.00
2023-05-02T11:15:56.087Z,26.30
2023-05-02T11:18:26.081Z,28.00
2023-05-02T11:21:16.715Z,27.20
2023-05-02T11:23:47.041Z,28.30
2023-05-02T11:26:26.172Z,29.40
2023-05-02T11:28:58.714Z,28.80
2023-05-02T11:32:04.121Z,29.70
2023-05-02T11:34:45.707Z,30.20
2023-05-02T11:37:16.711Z,30.00
2023-05-02T11:39:46.833Z,30.80
2023-05-02T11:42:31.769Z,32.00
2023-05-02T11:45:04.657Z,32.80
2023-05-02T11:47:36.329Z,31.90
2023-05-02T11:50:07.854Z,30.90
2023-05-02T11:52:41.509Z,30.40
2023-05-02T11:55:15.183Z,28.50
2023-05-02T11:57:45.448Z,26.30
2023-05-02T12:00:18.908Z,25.60
2023-05-02T12:02:50.485Z,26.50
2023-05-02T12:05:31.720Z,28.30
2023-05-02T12:08:02.019Z,28.60
2023-05-02T12:10:42.037Z,27.70
2023-05-02T12:13:12.047Z,26.40
2023-05-02T12:15:44.745Z,26.80
2023-05-02T12:18:16.417Z,26.00
2023-05-02T12:20:46.940Z,25.50
2023-05-02T12:23:17.088Z,26.30
2023-05-02T12:25:46.977Z,27.00
2023-05-02T12:28:17.005Z,27.90
2023-05-02T12:30:51.520Z,29.20
2023-05-02T12:33:21.958Z,29.10
2023-05-02T12:35:53.008Z,27.40
2023-05-02T12:38:24.080Z,25.40
2023-05-02T12:40:57.844Z,24.00
2023-05-02T12:43:27.749Z,23.10
2023-05-02T12:46:17.428Z,23.40
2023-05-02T12:48:47.421Z,23.70
2023-05-02T12:51:24.975Z,24.40
2023-05-02T12:53:54.858Z,25.00
2023-05-02T12:56:27.629Z,24.50
2023-05-02T12:58:59.849Z,24.50
2023-05-02T13:01:32.462Z,24.00
2023-05-02T13:04:02.502Z,22.30
2023-05-02T13:21:39.615Z,20.20
2023-05-02T13:24:09.732Z,20.60
2023-05-02T13:26:39.803Z,21.80
2023-05-02T13:29:11.751Z,23.20
2023-05-02T13:31:44.232Z,23.10
2023-05-02T13:34:14.069Z,22.10
2023-05-02T13:36:46.667Z,22.30
2023-05-02T13:39:16.703Z,22.80
2023-05-02T13:41:46.729Z,23.40
2023-05-02T13:44:16.695Z,24.20
2023-05-02T13:46:49.274Z,24.40
2023-05-02T13:49:19.322Z,23.70
2023-05-02T13:51:49.967Z,23.30
2023-05-02T13:54:20.001Z,23.00
2023-05-02T13:56:49.875Z,22.60
2023-05-02T13:59:19.770Z,22.20
2023-05-02T14:01:52.432Z,22.80
2023-05-02T14:04:23.597Z,23.80
2023-05-02T14:06:53.648Z,24.00
2023-05-02T14:09:23.646Z,23.50
2023-05-02T14:11:53.596Z,22.70
2023-05-02T14:14:23.554Z,22.50
2023-05-02T14:16:56.124Z,21.90
2023-05-02T14:19:26.089Z,22.30
2023-05-02T14:21:56.084Z,21.80
2023-05-02T14:24:26.143Z,22.00
2023-05-02T14:26:56.258Z,22.00
2023-05-02T14:29:26.186Z,22.30
2023-05-02T14:31:58.934Z,22.20
2023-05-02T14:34:29.052Z,22.50
2023-05-02T14:36:58.925Z,21.80
2023-05-02T14:39:28.795Z,21.70
2023-05-02T14:41:58.733Z,22.10
2023-05-02T14:44:28.608Z,21.10
2023-05-02T14:47:01.199Z,20.70
2023-05-02T14:49:31.111Z,21.00
2023-05-02T14:52:01.028Z,21.10
2023-05-02T14:54:31.459Z,21.30
2023-05-02T14:57:02.348Z,21.40
2023-05-02T14:59:32.963Z,21.80
2023-05-02T15:02:05.581Z,22.00
2023-05-02T15:04:35.690Z,22.40
2023-05-02T15:07:05.972Z,22.50
2023-05-02T15:09:35.989Z,22.50
2023-05-02T15:12:06.191Z,22.20
2023-05-02T15:14:36.157Z,21.30
2023-05-02T15:17:08.690Z,21.20
2023-05-02T15:19:38.623Z,21.10
2023-05-02T15:22:08.643Z,21.30
2023-05-02T15:24:38.506Z,21.50
2023-05-02T15:27:09.652Z,21.10
2023-05-02T15:29:39.652Z,20.80
2023-05-02T15:32:12.198Z,20.80
2023-05-02T15:34:42.130Z,20.90
2023-05-02T15:37:12.142Z,20.60
2023-05-02T15:39:42.253Z,20.00
2023-05-02T15:42:12.313Z,19.60
2023-05-02T15:44:42.329Z,19.20
2023-05-02T15:47:14.826Z,18.70
2023-05-02T15:49:45.259Z,18.90
2023-05-02T15:52:15.152Z,20.30
2023-05-02T15:54:45.046Z,20.70
2023-05-02T15:57:18.404Z,20.30
2023-05-02T15:59:48.369Z,18.90
2023-05-02T16:02:22.139Z,19.10
2023-05-02T16:04:52.012Z,19.60
2023-05-02T16:07:21.871Z,20.30
2023-05-02T16:09:52.134Z,20.50
2023-05-02T16:12:22.009Z,20.40
2023-05-02T16:14:51.888Z,19.80
2023-05-02T16:17:25.680Z,19.00
2023-05-02T16:19:55.564Z,18.40
2023-05-02T16:22:27.989Z,18.10
2023-05-02T16:24:57.890Z,17.60
2023-05-02T16:27:27.739Z,17.90
2023-05-02T16:29:57.669Z,18.40
2023-05-02T16:32:30.640Z,19.10
2023-05-02T16:35:00.946Z,19.50
2023-05-02T16:37:30.840Z,19.60
2023-05-02T16:40:02.647Z,19.20
2023-05-02T16:42:33.070Z,19.40
2023-05-02T16:45:03.192Z,19.90
2023-05-02T16:47:36.845Z,20.10
2023-05-02T16:50:08.111Z,20.00
2023-05-02T16:52:38.801Z,19.80
2023-05-02T16:55:09.185Z,20.00
2023-05-02T16:57:39.269Z,19.50
2023-05-02T17:00:12.529Z,19.30
2023-05-02T17:02:45.140Z,19.40
2023-05-02T17:05:15.100Z,19.50
2023-05-02T17:07:45.232Z,19.70
2023-05-02T17:10:15.232Z,20.00
2023-05-02T17:12:45.998Z,19.90
2023-05-02T17:15:16.526Z,19.90
2023-05-02T17:17:49.031Z,19.80
2023-05-02T17:20:20.661Z,19.40
2023-05-02T17:22:50.648Z,19.20
2023-05-02T17:25:20.800Z,19.30
2023-05-02T17:27:50.708Z,19.50
2023-05-02T17:30:20.675Z,19.40
2023-05-02T17:32:54.077Z,19.70
2023-05-02T17:35:23.981Z,20.00
2023-05-02T17:37:53.867Z,20.00
2023-05-02T17:40:24.049Z,19.70
2023-05-02T17:42:55.507Z,19.40
2023-05-02T17:45:25.385Z,19.50
2023-05-02T17:47:57.909Z,19.60
2023-05-02T17:50:27.910Z,19.50
2023-05-02T17:52:58.782Z,19.50
2023-05-02T17:55:28.738Z,18.90
2023-05-02T17:57:59.526Z,18.40
2023-05-02T18:00:30.414Z,18.10
2023-05-02T18:03:02.996Z,17.20
2023-05-02T18:05:32.928Z,16.60
2023-05-02T18:08:02.830Z,16.10
2023-05-02T18:10:32.665Z,15.80
2023-05-02T18:13:02.557Z,15.50
2023-05-02T18:15:32.532Z,15.20
2023-05-02T18:18:05.153Z,14.90
2023-05-02T18:20:35.011Z,14.60
2023-05-02T18:23:06.264Z,14.40
2023-05-02T18:25:36.866Z,14.20
2023-05-02T18:28:06.823Z,14.10
2023-05-02T18:30:39.108Z,14.00
2023-05-02T18:33:11.720Z,13.80
2023-05-02T18:35:41.850Z,13.70
2023-05-02T18:38:11.725Z,13.70
2023-05-02T18:40:41.724Z,13.70
2023-05-02T18:43:11.682Z,13.60
2023-05-02T18:45:42.120Z,13.60
2023-05-02T18:48:15.250Z,13.50
2023-05-02T18:50:45.200Z,13.40
2023-05-02T18:53:15.544Z,13.50
2023-05-02T18:55:45.674Z,13.40
2023-05-02T18:58:15.516Z,13.40
2023-05-02T19:00:45.766Z,13.20
2023-05-02T19:03:19.173Z,13.10
2023-05-02T19:05:50.316Z,13.00
2023-05-02T19:08:20.204Z,13.00
2023-05-02T19:10:50.817Z,13.00
2023-05-02T19:13:20.658Z,12.90
2023-05-02T19:15:50.722Z,12.80
2023-05-02T19:18:23.280Z,12.80
2023-05-02T19:20:53.429Z,12.80
2023-05-02T19:23:23.349Z,12.80
2023-05-02T19:25:53.241Z,12.80
2023-05-02T19:28:23.135Z,12.80
2023-05-02T19:30:54.879Z,12.70
2023-05-02T19:33:27.362Z,12.80
2023-05-02T19:35:58.622Z,12.70
2023-05-02T19:38:28.509Z,12.70
2023-05-02T19:40:58.509Z,12.70
2023-05-02T19:43:28.416Z,12.60
2023-05-02T19:45:58.987Z,12.50
2023-05-02T19:48:31.536Z,12.50
2023-05-02T19:51:04.312Z,12.60
2023-05-02T19:53:34.701Z,12.50
2023-05-02T19:56:07.007Z,12.40
2023-05-02T19:58:37.346Z,12.30
2023-05-02T20:01:07.303Z,12.20
2023-05-02T20:03:39.863Z,12.20
2023-05-02T20:06:09.834Z,12.20
2023-05-02T20:08:39.716Z,12.10
2023-05-02T20:11:09.613Z,12.10
2023-05-02T20:13:39.527Z,12.00
2023-05-02T20:16:10.505Z,11.90
2023-05-02T20:18:43.129Z,11.90
2023-05-02T20:21:13.185Z,11.80
2023-05-02T20:23:43.694Z,11.60
2023-05-02T20:26:14.305Z,11.60
2023-05-02T20:28:44.198Z,11.50
2023-05-02T20:31:14.118Z,11.40
2023-05-02T20:33:46.604Z,11.40
2023-05-02T20:36:18.246Z,11.40
2023-05-02T20:38:51.272Z,11.40
2023-05-02T20:41:21.654Z,11.40
2023-05-02T20:43:51.870Z,11.50
2023-05-02T20:46:21.818Z,11.70
2023-05-02T20:48:54.673Z,11.70
2023-05-02T20:51:24.574Z,11.80
2023-05-02T20:53:54.692Z,11.90
2023-05-02T20:56:26.294Z,12.00
2023-05-02T20:58:56.498Z,12.10
2023-05-02T21:01:27.982Z,12.10
2023-05-02T21:04:00.554Z,12.20
2023-05-02T21:06:31.526Z,12.10
2023-05-02T21:09:02.253Z,12.10
2023-05-02T21:11:32.416Z,12.10
2023-05-02T21:14:02.288Z,12.00
2023-05-02T21:16:33.183Z,12.00
2023-05-02T21:19:06.038Z,11.90
2023-05-02T21:21:36.156Z,11.90
2023-05-02T21:24:06.729Z,11.90
2023-05-02T21:26:36.813Z,11.80
2023-05-02T21:29:06.803Z,11.70
2023-05-02T21:31:36.755Z,11.50
2023-05-02T21:34:09.476Z,11.50
2023-05-02T21:36:39.450Z,11.40
2023-05-02T21:39:09.830Z,11.40
2023-05-02T21:41:39.726Z,11.40
2023-05-02T21:44:09.651Z,11.30
2023-05-02T21:46:39.563Z,11.30
2023-05-02T21:49:12.057Z,11.20
2023-05-02T21:51:42.120Z,11.10
2023-05-02T21:54:12.027Z,11.10
2023-05-02T21:56:41.998Z,11.20
2023-05-02T21:59:11.915Z,11.20
2023-05-02T22:01:41.822Z,11.10
2023-05-02T22:04:14.303Z,11.00
2023-05-02T22:06:44.278Z,11.10
2023-05-02T22:09:14.154Z,11.00
2023-05-02T22:11:44.092Z,11.00
2023-05-02T22:14:14.294Z,10.90
2023-05-02T22:16:44.350Z,10.80
2023-05-02T22:19:17.825Z,10.70
2023-05-02T22:21:47.685Z,10.70
2023-05-02T22:24:17.897Z,10.60
2023-05-02T22:26:47.770Z,10.50
2023-05-02T22:29:17.654Z,10.40
2023-05-02T22:31:47.609Z,10.30
2023-05-02T22:34:20.811Z,10.30
2023-05-02T22:36:50.759Z,10.20
2023-05-02T22:39:20.729Z,10.00
2023-05-02T22:41:50.590Z,9.90
2023-05-02T22:44:20.500Z,9.80
2023-05-02T22:46:50.496Z,9.70
2023-05-02T22:49:23.389Z,9.60
2023-05-02T22:51:58.197Z,9.60
2023-05-02T22:54:28.410Z,9.50
2023-05-02T22:56:58.224Z,9.40
2023-05-02T22:59:29.886Z,9.40
2023-05-02T23:02:02.451Z,9.30
2023-05-02T23:04:35.594Z,9.30
2023-05-02T23:07:05.446Z,9.20
2023-05-02T23:09:35.827Z,9.20
2023-05-02T23:12:06.454Z,9.10
2023-05-02T23:14:37.265Z,9.00
2023-05-02T23:17:07.156Z,8.70
2023-05-02T23:19:39.556Z,8.60
2023-05-02T23:22:09.470Z,8.60
2023-05-02T23:24:39.499Z,8.50
2023-05-02T23:27:10.259Z,8.40
2023-05-02T23:29:40.520Z,8.40
2023-05-02T23:32:10.842Z,8.40
2023-05-02T23:34:43.477Z,8.40
2023-05-02T23:37:14.437Z,8.40
2023-05-02T23:39:44.494Z,8.60
2023-05-02T23:42:14.392Z,8.70
2023-05-02T23:44:44.458Z,8.70
2023-05-02T23:47:14.488Z,8.40
2023-05-02T23:49:47.022Z,8.40
2023-05-02T23:52:16.902Z,8.20
2023-05-02T23:54:47.066Z,8.20
2023-05-02T23:57:17.244Z,8.40
2023-05-02T23:59:47.504Z,8.40
